createdAt,value
2022-08-11T00:00:18.332Z,74.44
2022-08-11T00:01:50.026Z,75.00
2022-08-11T00:02:54.793Z,74.98
2022-08-11T00:04:02.928Z,75.00
2022-08-11T00:05:27.489Z,75.19
2022-08-11T00:06:34.736Z,75.41
2022-08-11T00:07:45.815Z,75.51
2022-08-11T00:08:51.038Z,75.53
2022-08-11T00:09:55.043Z,75.57
2022-08-11T00:11:08.023Z,75.55
2022-08-11T00:12:16.031Z,75.94
2022-08-11T00:13:19.254Z,76.36
2022-08-11T00:14:24.152Z,76.52
2022-08-11T00:15:43.126Z,76.54
2022-08-11T00:16:58.487Z,76.61
2022-08-11T00:18:02.652Z,76.56
2022-08-11T00:19:05.050Z,77.00
2022-08-11T00:20:12.826Z,77.07
2022-08-11T00:22:04.134Z,76.79
2022-08-11T00:22:48.002Z,77.19
2022-08-11T00:24:00.709Z,77.14
2022-08-11T00:25:22.102Z,76.88
2022-08-11T00:26:25.662Z,77.01
2022-08-11T00:27:38.341Z,77.06
2022-08-11T00:28:41.909Z,76.95
2022-08-11T00:29:54.306Z,76.78
2022-08-11T00:30:59.735Z,76.73
2022-08-11T00:32:15.235Z,76.97
2022-08-11T00:33:18.417Z,77.12
2022-08-11T00:34:29.163Z,77.23
2022-08-11T00:35:51.863Z,77.16
2022-08-11T00:37:09.947Z,77.39
2022-08-11T00:38:13.268Z,77.55
2022-08-11T00:39:17.894Z,77.60
2022-08-11T00:40:41.452Z,77.73
2022-08-11T00:41:56.940Z,78.23
2022-08-11T00:43:23.829Z,78.04
2022-08-11T00:45:05.694Z,78.13
2022-08-11T00:46:25.602Z,78.42
2022-08-11T00:47:55.998Z,78.83
2022-08-11T00:49:39.783Z,78.59
2022-08-11T00:51:15.753Z,78.67
2022-08-11T00:52:40.511Z,79.00
2022-08-11T00:54:03.539Z,78.90
2022-08-11T00:55:26.492Z,78.71
2022-08-11T00:56:49.309Z,78.99
2022-08-11T00:58:24.601Z,78.53
2022-08-11T01:00:04.474Z,78.22
2022-08-11T01:01:06.345Z,77.96
2022-08-11T01:02:34.862Z,77.92
2022-08-11T01:03:45.582Z,78.07
2022-08-11T01:05:08.610Z,78.04
2022-08-11T01:06:34.625Z,78.14
2022-08-11T01:08:06.622Z,77.98
2022-08-11T01:09:52.504Z,78.15
2022-08-11T01:11:21.553Z,78.12
2022-08-11T01:12:51.038Z,78.46
2022-08-11T01:14:06.968Z,78.31
2022-08-11T01:15:33.181Z,78.54
2022-08-11T01:16:58.314Z,78.51
2022-08-11T01:18:23.182Z,78.63
2022-08-11T01:20:38.532Z,78.32
2022-08-11T01:21:25.154Z,78.11
2022-08-11T01:22:47.147Z,78.39
2022-08-11T01:24:13.262Z,78.16
2022-08-11T01:25:57.403Z,78.23
2022-08-11T01:27:48.770Z,78.58
2022-08-11T01:29:16.810Z,78.49
2022-08-11T01:30:44.325Z,78.52
2022-08-11T01:32:23.412Z,78.53
2022-08-11T01:34:11.822Z,78.55
2022-08-11T01:35:47.686Z,78.32
2022-08-11T01:37:02.601Z,78.35
2022-08-11T01:38:29.125Z,78.43
2022-08-11T01:39:49.227Z,78.35
2022-08-11T01:40:59.680Z,78.63
2022-08-11T01:42:37.548Z,78.80
2022-08-11T01:44:32.238Z,79.01
2022-08-11T01:45:48.439Z,79.29
2022-08-11T01:47:34.193Z,79.56
2022-08-11T01:48:49.811Z,79.60
2022-08-11T01:50:10.681Z,79.76
2022-08-11T01:51:34.915Z,79.92
2022-08-11T01:53:09.942Z,80.54
2022-08-11T01:54:26.717Z,80.63
2022-08-11T01:55:40.529Z,80.90
2022-08-11T01:57:13.305Z,80.98
2022-08-11T01:58:43.875Z,81.56
2022-08-11T01:59:51.897Z,81.36
2022-08-11T02:01:28.229Z,81.03
2022-08-11T02:02:53.841Z,80.91
2022-08-11T02:04:17.937Z,81.06
2022-08-11T02:06:01.157Z,80.94
2022-08-11T02:07:33.217Z,81.03
2022-08-11T02:09:07.769Z,81.25
2022-08-11T02:10:58.203Z,81.40
2022-08-11T02:12:26.533Z,82.01
2022-08-11T02:13:47.374Z,82.29
2022-08-11T02:15:09.387Z,82.27
2022-08-11T02:16:47.113Z,82.50
2022-08-11T02:18:14.096Z,82.52
2022-08-11T02:19:37.076Z,82.39
2022-08-11T02:21:06.710Z,82.60
2022-08-11T02:22:46.414Z,82.44
2022-08-11T02:24:07.919Z,82.92
2022-08-11T02:25:24.075Z,83.00
2022-08-11T02:26:34.122Z,83.22
2022-08-11T02:27:48.574Z,83.27
2022-08-11T02:29:17.687Z,83.57
2022-08-11T02:30:28.093Z,83.87
2022-08-11T02:32:25.626Z,84.12
2022-08-11T02:33:30.429Z,84.04
2022-08-11T02:35:02.156Z,84.03
2022-08-11T02:36:15.445Z,84.04
2022-08-11T02:37:32.291Z,83.86
2022-08-11T02:39:06.319Z,83.98
2022-08-11T02:40:31.207Z,84.00
2022-08-11T02:42:35.265Z,84.22
2022-08-11T02:43:51.156Z,84.19
2022-08-11T02:45:19.926Z,84.25
2022-08-11T02:46:43.681Z,84.44
2022-08-11T02:48:43.950Z,84.47
2022-08-11T02:50:07.124Z,84.42
2022-08-11T02:51:21.947Z,84.44
2022-08-11T02:52:42.589Z,84.50
2022-08-11T02:54:06.189Z,84.54
2022-08-11T02:55:55.735Z,84.35
2022-08-11T02:56:59.838Z,84.08
2022-08-11T02:58:27.114Z,84.24
2022-08-11T03:00:04.363Z,84.03
2022-08-11T03:01:18.534Z,84.16
2022-08-11T03:02:42.790Z,84.31
2022-08-11T03:03:51.401Z,84.48
2022-08-11T03:05:12.027Z,84.52
2022-08-11T03:06:31.841Z,84.65
2022-08-11T03:08:10.930Z,84.62
2022-08-11T03:09:40.249Z,84.81
2022-08-11T03:11:30.046Z,84.56
2022-08-11T03:13:10.796Z,85.01
2022-08-11T03:14:59.234Z,85.13
2022-08-11T03:16:45.656Z,85.14
2022-08-11T03:18:04.206Z,85.01
2022-08-11T03:19:41.667Z,85.24
2022-08-11T03:20:58.462Z,85.46
2022-08-11T03:22:31.246Z,85.69
2022-08-11T03:23:48.617Z,85.59
2022-08-11T03:25:39.679Z,85.80
2022-08-11T03:26:56.662Z,85.59
2022-08-11T03:28:11.378Z,85.75
2022-08-11T03:29:25.392Z,85.80
2022-08-11T03:30:43.915Z,85.71
2022-08-11T03:32:04.508Z,85.69
2022-08-11T03:33:44.897Z,85.58
2022-08-11T03:34:50.794Z,85.56
2022-08-11T03:37:17.150Z,85.45
2022-08-11T03:38:08.545Z,84.99
2022-08-11T03:39:29.369Z,84.95
2022-08-11T03:42:01.363Z,84.51
2022-08-11T03:42:58.629Z,84.11
2022-08-11T03:44:30.429Z,83.99
2022-08-11T03:45:49.987Z,83.56
2022-08-11T03:46:54.332Z,83.50
2022-08-11T03:48:14.200Z,83.37
2022-08-11T03:49:29.625Z,83.38
2022-08-11T03:50:54.862Z,83.32
2022-08-11T03:52:13.313Z,83.25
2022-08-11T03:54:02.957Z,83.29
2022-08-11T03:55:21.995Z,83.35
2022-08-11T03:56:53.588Z,83.48
2022-08-11T03:58:08.072Z,83.60
2022-08-11T03:59:18.686Z,83.76
2022-08-11T04:00:50.872Z,83.86
2022-08-11T04:02:10.693Z,84.22
2022-08-11T04:03:21.061Z,84.10
2022-08-11T04:04:57.300Z,84.30
2022-08-11T04:06:51.765Z,84.41
2022-08-11T04:08:18.042Z,84.37
2022-08-11T04:09:38.393Z,84.41
2022-08-11T04:11:17.234Z,84.36
2022-08-11T04:12:36.597Z,84.36
2022-08-11T04:14:20.354Z,84.48
2022-08-11T04:16:11.816Z,84.52
2022-08-11T04:17:50.850Z,84.56
2022-08-11T04:19:47.746Z,84.66
2022-08-11T04:21:03.158Z,84.78
2022-08-11T04:22:22.345Z,84.81
2022-08-11T04:24:35.793Z,84.99
2022-08-11T04:25:29.096Z,84.97
2022-08-11T04:26:53.814Z,85.02
2022-08-11T04:28:07.625Z,85.12
2022-08-11T04:30:00.998Z,85.19
2022-08-11T04:31:50.363Z,85.30
2022-08-11T04:33:05.460Z,85.47
2022-08-11T04:34:41.386Z,85.54
2022-08-11T04:36:48.957Z,85.64
2022-08-11T04:38:15.085Z,85.74
2022-08-11T04:39:39.516Z,85.71
2022-08-11T04:41:14.409Z,85.79
2022-08-11T04:42:47.446Z,85.80
2022-08-11T04:44:45.304Z,85.69
2022-08-11T04:46:23.818Z,85.54
2022-08-11T04:48:09.974Z,85.59
2022-08-11T04:49:54.053Z,85.54
2022-08-11T04:51:32.849Z,85.41
2022-08-11T04:53:28.725Z,85.05
2022-08-11T04:55:47.785Z,85.13
2022-08-11T04:57:14.106Z,84.96
2022-08-11T04:58:56.094Z,85.06
2022-08-11T05:00:26.287Z,85.07
2022-08-11T05:02:02.938Z,85.12
2022-08-11T05:03:25.862Z,84.91
2022-08-11T05:05:35.140Z,84.71
2022-08-11T05:07:20.758Z,84.66
2022-08-11T05:08:54.858Z,84.67
2022-08-11T05:10:22.844Z,85.20
2022-08-11T05:11:49.141Z,84.90
2022-08-11T05:13:25.617Z,84.79
2022-08-11T05:14:57.329Z,84.44
2022-08-11T05:16:28.378Z,84.00
2022-08-11T05:17:57.213Z,83.30
2022-08-11T05:19:21.349Z,83.05
2022-08-11T05:20:44.879Z,83.24
2022-08-11T05:22:13.178Z,83.39
2022-08-11T05:23:37.675Z,82.98
2022-08-11T05:26:43.961Z,82.89
2022-08-11T05:27:13.795Z,82.38
2022-08-11T05:28:50.669Z,82.48
2022-08-11T05:30:22.541Z,82.54
2022-08-11T05:31:52.340Z,82.46
2022-08-11T05:33:29.180Z,82.86
2022-08-11T05:34:55.302Z,82.09
2022-08-11T05:36:15.646Z,82.10
2022-08-11T05:37:34.111Z,81.88
2022-08-11T05:38:56.300Z,81.74
2022-08-11T05:40:26.425Z,80.80
2022-08-11T05:41:50.113Z,80.45
2022-08-11T05:43:20.504Z,80.37
2022-08-11T05:44:41.568Z,79.57
2022-08-11T05:46:14.673Z,79.79
2022-08-11T05:47:46.343Z,79.52
2022-08-11T05:49:10.265Z,79.86
2022-08-11T05:50:33.351Z,79.75
2022-08-11T05:52:05.902Z,79.73
2022-08-11T05:53:46.162Z,79.38
2022-08-11T05:55:09.715Z,79.02
2022-08-11T05:56:21.122Z,78.75
2022-08-11T05:57:48.521Z,79.18
2022-08-11T05:58:54.845Z,78.93
2022-08-11T06:00:10.711Z,78.26
2022-08-11T06:01:21.760Z,77.26
2022-08-11T06:02:24.157Z,77.04
2022-08-11T06:03:29.561Z,76.47
2022-08-11T06:04:32.291Z,76.38
2022-08-11T06:05:43.546Z,75.57
2022-08-11T06:06:57.535Z,75.89
2022-08-11T06:08:00.734Z,75.79
2022-08-11T06:09:02.963Z,75.67
2022-08-11T06:10:06.858Z,75.68
2022-08-11T06:11:10.647Z,75.96
2022-08-11T06:12:37.348Z,75.77
2022-08-11T06:13:45.919Z,75.74
2022-08-11T06:14:53.850Z,75.21
2022-08-11T06:15:58.562Z,74.86
2022-08-11T06:17:03.735Z,74.54
2022-08-11T06:18:09.637Z,74.40
2022-08-11T06:19:12.902Z,73.19
2022-08-11T06:20:16.798Z,72.87
2022-08-11T06:21:19.077Z,73.40
2022-08-11T06:22:23.386Z,73.49
2022-08-11T06:23:33.468Z,72.76
2022-08-11T06:24:41.838Z,72.15
2022-08-11T06:25:45.292Z,72.04
2022-08-11T06:28:20.551Z,72.90
2022-08-11T06:29:38.292Z,72.39
2022-08-11T06:30:49.446Z,73.08
2022-08-11T06:31:58.740Z,72.86
2022-08-11T06:33:04.211Z,72.48
2022-08-11T06:34:11.561Z,73.00
2022-08-11T06:35:47.646Z,72.90
2022-08-11T06:37:18.482Z,72.18
2022-08-11T06:38:22.741Z,72.47
2022-08-11T06:39:37.266Z,71.93
2022-08-11T06:41:10.404Z,71.80
2022-08-11T06:42:29.297Z,71.34
2022-08-11T06:44:05.968Z,71.06
2022-08-11T06:45:24.679Z,70.93
2022-08-11T06:46:31.610Z,70.89
2022-08-11T06:47:35.325Z,70.52
2022-08-11T06:48:40.816Z,69.55
2022-08-11T06:50:08.395Z,68.31
2022-08-11T06:51:14.770Z,67.77
2022-08-11T06:52:34.457Z,67.91
2022-08-11T06:54:03.103Z,67.96
2022-08-11T06:55:15.941Z,67.92
2022-08-11T06:57:29.948Z,66.89
2022-08-11T06:58:41.660Z,66.67
2022-08-11T07:00:03.354Z,66.34
2022-08-11T07:01:13.150Z,67.40
2022-08-11T07:02:22.618Z,67.31
2022-08-11T07:03:32.878Z,66.79
2022-08-11T07:05:08.218Z,66.91
2022-08-11T07:06:21.355Z,67.40
2022-08-11T07:08:34.158Z,66.98
2022-08-11T07:10:19.070Z,67.28
2022-08-11T07:12:19.291Z,67.21
2022-08-11T07:13:45.613Z,66.79
2022-08-11T07:15:11.331Z,66.29
2022-08-11T07:16:26.574Z,65.51
2022-08-11T07:17:32.089Z,64.94
2022-08-11T07:18:56.209Z,65.28
2022-08-11T07:20:20.927Z,64.94
2022-08-11T07:22:01.972Z,64.39
2022-08-11T07:23:28.180Z,63.70
2022-08-11T07:24:59.549Z,62.94
2022-08-11T07:26:25.553Z,61.68
2022-08-11T07:28:02.335Z,61.28
2022-08-11T07:29:09.933Z,61.55
2022-08-11T07:30:12.229Z,61.84
2022-08-11T07:31:44.734Z,61.73
2022-08-11T07:32:56.077Z,61.97
2022-08-11T07:34:29.712Z,62.09
2022-08-11T07:35:36.281Z,60.40
2022-08-11T07:36:42.793Z,60.29
2022-08-11T07:38:01.406Z,59.92
2022-08-11T07:39:07.658Z,59.54
2022-08-11T07:40:11.301Z,59.88
2022-08-11T07:41:19.270Z,59.69
2022-08-11T07:42:28.983Z,60.34
2022-08-11T07:43:31.189Z,61.61
2022-08-11T07:44:55.190Z,60.44
2022-08-11T07:46:16.140Z,58.81
2022-08-11T07:47:37.253Z,59.54
2022-08-11T07:49:00.664Z,58.19
2022-08-11T07:50:21.951Z,58.37
2022-08-11T07:51:42.451Z,58.38
2022-08-11T07:52:47.261Z,57.61
2022-08-11T07:54:03.061Z,58.02
2022-08-11T07:55:16.174Z,58.02
2022-08-11T07:56:19.665Z,58.35
2022-08-11T07:58:15.414Z,58.74
2022-08-11T08:00:02.757Z,57.14
2022-08-11T08:01:22.171Z,56.53
2022-08-11T08:02:43.797Z,57.00
2022-08-11T08:04:04.770Z,57.48
2022-08-11T08:05:25.901Z,56.75
2022-08-11T08:06:48.405Z,56.23
2022-08-11T08:08:08.852Z,56.69
2022-08-11T08:09:30.999Z,56.03
2022-08-11T08:10:51.338Z,57.07
2022-08-11T08:12:12.277Z,55.72
2022-08-11T08:13:34.562Z,55.83
2022-08-11T08:14:56.654Z,55.03
2022-08-11T08:16:17.422Z,55.84
2022-08-11T08:17:40.089Z,54.22
2022-08-11T08:18:42.778Z,53.84
2022-08-11T08:19:47.890Z,53.50
2022-08-11T08:20:51.291Z,53.56
2022-08-11T08:21:54.101Z,54.11
2022-08-11T08:23:09.093Z,54.20
2022-08-11T08:24:12.461Z,54.50
2022-08-11T08:25:15.289Z,54.38
2022-08-11T08:26:37.243Z,54.37
2022-08-11T08:27:40.332Z,53.74
2022-08-11T08:28:46.549Z,53.37
2022-08-11T08:30:07.989Z,52.14
2022-08-11T08:31:09.974Z,53.32
2022-08-11T08:32:13.220Z,54.14
2022-08-11T08:33:22.278Z,53.76
2022-08-11T08:34:25.427Z,53.61
2022-08-11T08:35:32.879Z,52.30
2022-08-11T08:36:35.930Z,52.88
2022-08-11T08:37:46.177Z,51.60
2022-08-11T08:38:54.017Z,50.74
2022-08-11T08:39:56.627Z,50.64
2022-08-11T08:41:00.415Z,51.31
2022-08-11T08:42:10.981Z,51.33
2022-08-11T08:43:17.380Z,50.88
2022-08-11T08:44:40.948Z,52.04
2022-08-11T08:45:44.895Z,52.63
2022-08-11T08:46:58.636Z,51.63
2022-08-11T08:48:09.030Z,52.04
2022-08-11T08:49:18.247Z,51.91
2022-08-11T08:50:27.419Z,51.05
2022-08-11T08:51:58.730Z,51.27
2022-08-11T08:53:06.947Z,50.47
2022-08-11T08:54:16.840Z,51.09
2022-08-11T08:55:20.836Z,50.43
2022-08-11T08:56:28.551Z,50.20
2022-08-11T08:57:39.199Z,49.53
2022-08-11T08:58:46.365Z,49.40
2022-08-11T08:59:52.158Z,49.78
2022-08-11T09:00:56.692Z,50.51
2022-08-11T09:02:02.734Z,50.13
2022-08-11T09:03:22.768Z,50.31
2022-08-11T09:04:28.594Z,50.84
2022-08-11T09:05:30.703Z,49.86
2022-08-11T09:06:33.321Z,48.64
2022-08-11T09:07:39.494Z,48.44
2022-08-11T09:08:43.574Z,47.99
2022-08-11T09:09:49.257Z,49.02
2022-08-11T09:11:14.054Z,49.39
2022-08-11T09:12:35.885Z,48.46
2022-08-11T09:13:44.488Z,48.50
2022-08-11T09:15:03.503Z,48.88
2022-08-11T09:16:06.868Z,47.13
2022-08-11T09:17:09.104Z,46.77
2022-08-11T09:18:12.714Z,47.08
2022-08-11T09:19:18.224Z,47.97
2022-08-11T09:20:24.644Z,48.18
2022-08-11T09:21:46.360Z,47.47
2022-08-11T09:24:07.074Z,48.58
2022-08-11T09:24:51.024Z,48.70
2022-08-11T09:26:17.665Z,47.77
2022-08-11T09:27:22.385Z,48.76
2022-08-11T09:28:24.645Z,48.40
2022-08-11T09:29:29.151Z,49.23
2022-08-11T09:30:32.310Z,49.30
2022-08-11T09:31:39.642Z,50.23
2022-08-11T09:32:43.021Z,49.39
2022-08-11T09:33:46.602Z,49.99
2022-08-11T09:34:52.109Z,49.30
2022-08-11T09:35:57.312Z,49.03
2022-08-11T09:37:28.453Z,49.40
2022-08-11T09:39:00.528Z,49.50
2022-08-11T09:40:23.085Z,48.22
2022-08-11T09:42:00.708Z,48.07
2022-08-11T09:43:10.869Z,46.81
2022-08-11T09:44:32.649Z,46.34
2022-08-11T09:45:40.500Z,46.14
2022-08-11T09:46:43.667Z,46.74
2022-08-11T09:47:47.964Z,47.19
2022-08-11T09:48:53.721Z,45.80
2022-08-11T09:50:02.167Z,46.74
2022-08-11T09:51:07.165Z,47.54
2022-08-11T09:52:09.976Z,47.32
2022-08-11T09:53:36.241Z,47.52
2022-08-11T09:54:35.970Z,47.82
2022-08-11T09:55:38.889Z,47.56
2022-08-11T09:57:02.063Z,48.92
2022-08-11T09:58:41.843Z,48.48
2022-08-11T09:59:41.509Z,48.40
2022-08-11T10:00:47.697Z,48.08
2022-08-11T10:02:00.374Z,47.70
2022-08-11T10:03:07.123Z,47.86
2022-08-11T10:04:17.596Z,48.69
2022-08-11T10:05:40.077Z,48.98
2022-08-11T10:07:04.511Z,48.15
2022-08-11T10:08:12.713Z,48.11
2022-08-11T10:09:20.414Z,47.93
2022-08-11T10:10:24.257Z,49.05
2022-08-11T10:11:28.518Z,49.14
2022-08-11T10:12:37.593Z,47.73
2022-08-11T10:14:31.155Z,47.36
2022-08-11T10:15:35.427Z,46.72
2022-08-11T10:16:41.879Z,47.09
2022-08-11T10:18:07.242Z,47.84
2022-08-11T10:19:11.380Z,47.90
2022-08-11T10:20:14.255Z,47.59
2022-08-11T10:21:37.129Z,49.13
2022-08-11T10:22:59.132Z,48.94
2022-08-11T10:24:21.293Z,48.15
2022-08-11T10:25:42.023Z,47.99
2022-08-11T10:26:55.199Z,46.86
2022-08-11T10:28:28.619Z,46.31
2022-08-11T10:29:59.633Z,45.52
2022-08-11T10:31:22.981Z,45.91
2022-08-11T10:32:57.453Z,45.35
2022-08-11T10:34:03.843Z,44.34
2022-08-11T10:35:09.095Z,44.64
2022-08-11T10:36:16.484Z,45.22
2022-08-11T10:37:23.497Z,45.54
2022-08-11T10:38:27.627Z,45.09
2022-08-11T10:39:29.930Z,45.03
2022-08-11T10:40:32.717Z,45.90
2022-08-11T10:42:03.414Z,46.07
2022-08-11T10:43:14.031Z,45.49
2022-08-11T10:44:17.451Z,46.18
2022-08-11T10:45:39.546Z,46.75
2022-08-11T10:46:59.942Z,47.78
2022-08-11T10:48:04.419Z,48.08
2022-08-11T10:49:09.136Z,47.11
2022-08-11T10:50:32.158Z,45.50
2022-08-11T10:51:54.269Z,45.31
2022-08-11T10:53:21.050Z,45.60
2022-08-11T10:54:42.789Z,45.34
2022-08-11T10:57:34.303Z,46.03
2022-08-11T10:58:49.244Z,46.47
2022-08-11T10:59:51.287Z,46.68
2022-08-11T11:00:56.993Z,47.29
2022-08-11T11:02:00.662Z,48.00
2022-08-11T11:03:22.185Z,49.09
2022-08-11T11:04:58.499Z,49.00
2022-08-11T11:06:36.894Z,47.73
2022-08-11T11:07:54.951Z,46.88
2022-08-11T11:09:06.655Z,45.98
2022-08-11T11:10:09.338Z,45.58
2022-08-11T11:11:18.417Z,44.52
2022-08-11T11:12:56.913Z,44.76
2022-08-11T11:14:17.747Z,42.82
2022-08-11T11:15:41.857Z,42.09
2022-08-11T11:17:02.625Z,42.29
2022-08-11T11:18:09.313Z,42.45
2022-08-11T11:19:24.023Z,42.75
2022-08-11T11:20:51.709Z,42.32
2022-08-11T11:22:17.831Z,42.85
2022-08-11T11:23:28.866Z,41.53
2022-08-11T11:24:42.510Z,41.90
2022-08-11T11:26:11.705Z,40.78
2022-08-11T11:27:37.105Z,40.67
2022-08-11T11:29:25.173Z,40.54
2022-08-11T11:30:38.307Z,41.08
2022-08-11T11:32:12.116Z,40.96
2022-08-11T11:33:34.346Z,38.30
2022-08-11T11:35:17.701Z,38.87
2022-08-11T11:36:28.853Z,37.77
2022-08-11T11:37:36.755Z,37.54
2022-08-11T11:38:38.890Z,37.72
2022-08-11T11:39:40.941Z,38.35
2022-08-11T11:41:04.893Z,39.23
2022-08-11T11:42:10.747Z,39.83
2022-08-11T11:43:12.944Z,41.33
2022-08-11T11:44:15.708Z,40.14
2022-08-11T11:45:24.076Z,40.02
2022-08-11T11:46:30.224Z,38.62
2022-08-11T11:47:33.594Z,39.39
2022-08-11T11:48:37.306Z,38.08
2022-08-11T11:49:44.259Z,38.26
2022-08-11T11:50:47.114Z,38.36
2022-08-11T11:51:54.675Z,38.50
2022-08-11T11:53:00.385Z,37.69
2022-08-11T11:54:05.017Z,38.02
2022-08-11T11:55:08.166Z,38.03
2022-08-11T11:56:12.290Z,36.93
2022-08-11T11:57:36.082Z,37.72
2022-08-11T11:58:58.484Z,38.16
2022-08-11T12:00:19.875Z,37.65
2022-08-11T12:01:25.292Z,38.78
2022-08-11T12:02:28.175Z,38.96
2022-08-11T12:03:31.990Z,38.75
2022-08-11T12:04:37.082Z,38.76
2022-08-11T12:05:43.738Z,39.21
2022-08-11T12:06:47.130Z,39.22
2022-08-11T12:08:13.086Z,39.04
2022-08-11T12:09:18.462Z,38.12
2022-08-11T12:10:21.040Z,36.23
2022-08-11T12:11:43.825Z,36.24
2022-08-11T12:13:06.607Z,38.06
2022-08-11T12:14:11.030Z,37.37
2022-08-11T12:15:13.539Z,37.52
2022-08-11T12:16:33.300Z,37.25
2022-08-11T12:17:39.125Z,36.60
2022-08-11T12:18:43.633Z,36.56
2022-08-11T12:19:46.088Z,37.27
2022-08-11T12:20:51.265Z,36.83
2022-08-11T12:22:15.210Z,35.63
2022-08-11T12:23:35.698Z,35.93
2022-08-11T12:24:59.066Z,34.78
2022-08-11T12:26:27.716Z,35.03
2022-08-11T12:27:31.581Z,34.28
2022-08-11T12:28:34.563Z,34.92
2022-08-11T12:29:39.901Z,34.82
2022-08-11T12:30:49.461Z,35.03
2022-08-11T12:31:58.663Z,34.81
2022-08-11T12:33:00.799Z,34.44
2022-08-11T12:34:17.087Z,33.56
2022-08-11T12:35:19.064Z,33.14
2022-08-11T12:36:22.942Z,32.31
2022-08-11T12:37:31.028Z,32.66
2022-08-11T12:38:36.202Z,33.67
2022-08-11T12:40:16.657Z,34.03
2022-08-11T12:41:45.300Z,35.17
2022-08-11T12:43:20.677Z,36.47
2022-08-11T12:45:27.286Z,33.67
2022-08-11T12:46:37.078Z,32.12
2022-08-11T12:48:57.201Z,31.61
2022-08-11T12:49:45.541Z,31.31
2022-08-11T12:51:13.322Z,32.34
2022-08-11T12:52:27.475Z,33.38
2022-08-11T12:53:34.702Z,33.60
2022-08-11T12:54:57.912Z,33.66
2022-08-11T12:56:24.759Z,33.15
2022-08-11T12:57:54.036Z,32.32
2022-08-11T12:59:16.784Z,32.11
2022-08-11T13:00:39.848Z,31.82
2022-08-11T13:02:02.151Z,33.27
2022-08-11T13:03:26.326Z,31.24
2022-08-11T13:04:48.071Z,31.04
2022-08-11T13:05:57.173Z,31.39
2022-08-11T13:06:59.238Z,30.90
2022-08-11T13:08:03.545Z,31.40
2022-08-11T13:09:08.664Z,31.51
2022-08-11T13:10:17.029Z,32.29
2022-08-11T13:11:56.356Z,32.85
2022-08-11T13:12:58.964Z,32.76
2022-08-11T13:14:02.008Z,32.96
2022-08-11T13:15:05.161Z,32.99
2022-08-11T13:16:07.508Z,32.35
2022-08-11T13:17:21.764Z,32.11
2022-08-11T13:18:45.175Z,32.54
2022-08-11T13:19:49.580Z,32.76
2022-08-11T13:20:57.274Z,32.97
2022-08-11T13:22:00.768Z,33.53
2022-08-11T13:23:04.052Z,34.54
2022-08-11T13:24:06.309Z,34.33
2022-08-11T13:25:09.496Z,34.32
2022-08-11T13:26:19.956Z,35.45
2022-08-11T13:27:25.352Z,35.69
2022-08-11T13:28:28.071Z,35.49
2022-08-11T13:29:30.656Z,35.44
2022-08-11T13:30:52.139Z,35.67
2022-08-11T13:31:56.717Z,38.10
2022-08-11T13:33:00.007Z,40.88
2022-08-11T13:35:08.470Z,43.92
2022-08-11T13:36:12.061Z,46.06
2022-08-11T13:37:15.826Z,46.89
2022-08-11T13:38:22.191Z,47.45
2022-08-11T13:39:28.387Z,47.45
2022-08-11T13:40:54.784Z,48.46
2022-08-11T13:41:59.304Z,49.80
2022-08-11T13:43:01.394Z,50.41
2022-08-11T13:44:09.304Z,51.10
2022-08-11T13:45:14.081Z,51.58
2022-08-11T13:46:21.167Z,52.22
2022-08-11T13:47:25.001Z,52.87
2022-08-11T13:48:28.273Z,53.92
2022-08-11T13:49:33.773Z,54.98
2022-08-11T13:50:56.229Z,55.21
2022-08-11T13:51:59.716Z,56.55
2022-08-11T13:53:02.034Z,57.06
2022-08-11T13:54:18.886Z,58.50
2022-08-11T13:55:50.913Z,59.79
2022-08-11T13:56:48.781Z,61.22
2022-08-11T13:58:07.134Z,62.91
2022-08-11T13:59:30.135Z,64.07
2022-08-11T14:00:33.414Z,65.46
2022-08-11T14:02:19.762Z,66.31
2022-08-11T14:03:12.786Z,67.65
2022-08-11T14:04:29.787Z,68.48
2022-08-11T14:05:40.412Z,69.55
2022-08-11T14:06:53.611Z,70.87
2022-08-11T14:08:07.830Z,71.33
2022-08-11T14:09:39.436Z,72.74
2022-08-11T14:10:42.614Z,73.01
2022-08-11T14:12:22.940Z,73.66
2022-08-11T14:13:42.180Z,75.06
2022-08-11T14:15:07.625Z,75.92
2022-08-11T14:16:18.554Z,76.88
2022-08-11T14:17:48.454Z,77.53
2022-08-11T14:18:47.959Z,77.25
2022-08-11T14:19:53.949Z,76.67
2022-08-11T14:21:23.086Z,77.88
2022-08-11T14:22:26.370Z,77.72
2022-08-11T14:23:37.542Z,76.25
2022-08-11T14:24:49.494Z,75.50
2022-08-11T14:26:10.130Z,75.37
2022-08-11T14:28:31.070Z,75.07
2022-08-11T14:28:44.410Z,73.91
2022-08-11T14:29:48.966Z,75.06
2022-08-11T14:31:01.221Z,76.82
2022-08-11T14:32:06.675Z,77.84
2022-08-11T14:33:17.194Z,78.59
2022-08-11T14:34:26.175Z,79.72
2022-08-11T14:35:28.971Z,79.19
2022-08-11T14:36:37.666Z,77.65
2022-08-11T14:37:40.567Z,78.12
2022-08-11T14:38:44.166Z,79.63
2022-08-11T14:40:02.985Z,79.66
2022-08-11T14:41:26.783Z,79.20
2022-08-11T14:42:47.687Z,79.90
2022-08-11T14:44:13.724Z,79.66
2022-08-11T14:45:57.661Z,79.64
2022-08-11T14:47:23.062Z,80.06
2022-08-11T14:48:27.263Z,79.24
2022-08-11T14:49:30.308Z,78.30
2022-08-11T14:50:34.448Z,77.79
2022-08-11T14:51:37.157Z,78.27
2022-08-11T14:52:45.092Z,78.96
2022-08-11T14:53:58.344Z,78.61
2022-08-11T14:55:20.621Z,77.52
2022-08-11T14:56:37.926Z,76.71
2022-08-11T14:57:55.027Z,76.24
2022-08-11T14:59:05.770Z,76.49
2022-08-11T15:00:12.887Z,76.16
2022-08-11T15:01:34.834Z,74.37
2022-08-11T15:02:57.753Z,72.34
2022-08-11T15:04:34.271Z,70.34
2022-08-11T15:05:24.566Z,65.60
2022-08-11T15:06:28.665Z,62.56
2022-08-11T15:07:33.240Z,59.31
2022-08-11T15:08:57.384Z,58.26
2022-08-11T15:10:12.869Z,56.28
2022-08-11T15:11:36.875Z,55.21
2022-08-11T15:12:42.438Z,53.04
2022-08-11T15:13:44.332Z,50.83
2022-08-11T15:15:05.700Z,48.71
2022-08-11T15:16:26.279Z,47.70
2022-08-11T15:17:40.887Z,46.11
2022-08-11T15:18:45.169Z,45.27
2022-08-11T15:20:08.077Z,44.93
2022-08-11T15:21:28.637Z,44.61
2022-08-11T15:22:49.691Z,45.89
2022-08-11T15:24:09.806Z,45.03
2022-08-11T15:25:12.145Z,44.56
2022-08-11T15:26:42.881Z,44.26
2022-08-11T15:28:07.609Z,42.40
2022-08-11T15:29:30.695Z,42.82
2022-08-11T15:30:53.690Z,42.03
2022-08-11T15:32:15.035Z,42.15
2022-08-11T15:33:38.738Z,42.11
2022-08-11T15:35:03.663Z,44.32
2022-08-11T15:36:28.334Z,45.64
2022-08-11T15:37:35.360Z,47.49
2022-08-11T15:38:49.145Z,48.98
2022-08-11T15:40:31.385Z,50.50
2022-08-11T15:42:12.574Z,52.01
2022-08-11T15:43:39.864Z,53.74
2022-08-11T15:45:09.559Z,55.65
2022-08-11T15:46:19.861Z,56.91
2022-08-11T15:47:29.117Z,57.97
2022-08-11T15:48:32.447Z,57.53
2022-08-11T15:50:12.000Z,57.68
2022-08-11T15:51:16.697Z,57.75
2022-08-11T15:52:23.348Z,58.00
2022-08-11T15:53:42.446Z,58.72
2022-08-11T15:54:49.230Z,58.69
2022-08-11T15:55:52.709Z,59.06
2022-08-11T15:56:57.457Z,58.61
2022-08-11T15:58:22.993Z,58.44
2022-08-11T16:00:24.410Z,58.21
2022-08-11T16:01:47.277Z,55.94
2022-08-11T16:03:13.700Z,56.89
2022-08-11T16:04:21.524Z,56.84
2022-08-11T16:05:45.510Z,56.64
2022-08-11T16:06:58.351Z,57.00
2022-08-11T16:08:02.535Z,57.62
2022-08-11T16:09:09.542Z,57.36
2022-08-11T16:10:23.419Z,57.55
2022-08-11T16:11:27.832Z,57.62
2022-08-11T16:12:33.042Z,58.87
2022-08-11T16:13:41.724Z,58.19
2022-08-11T16:15:05.035Z,58.85
2022-08-11T16:16:16.487Z,60.08
2022-08-11T16:17:23.194Z,61.19
2022-08-11T16:18:40.948Z,60.85
2022-08-11T16:19:46.478Z,60.67
2022-08-11T16:20:55.313Z,60.47
2022-08-11T16:21:58.418Z,60.97
2022-08-11T16:23:04.742Z,61.31
2022-08-11T16:27:03.322Z,61.79
2022-08-11T16:27:04.810Z,61.82
2022-08-11T16:27:08.679Z,62.70
2022-08-11T16:28:16.922Z,63.29
2022-08-11T16:29:21.764Z,63.45
2022-08-11T16:30:27.186Z,63.98
2022-08-11T16:31:33.213Z,64.13
2022-08-11T16:32:39.683Z,64.00
2022-08-11T16:33:49.708Z,64.43
2022-08-11T16:35:19.116Z,63.98
2022-08-11T16:36:44.321Z,63.81
2022-08-11T16:38:05.860Z,63.82
2022-08-11T16:39:10.636Z,63.74
2022-08-11T16:40:15.161Z,63.81
2022-08-11T16:41:39.588Z,64.30
2022-08-11T16:43:10.304Z,64.87
2022-08-11T16:44:37.826Z,65.82
2022-08-11T16:46:01.053Z,65.80
2022-08-11T16:47:06.144Z,66.46
2022-08-11T16:48:35.334Z,66.71
2022-08-11T16:49:36.112Z,66.33
2022-08-11T16:50:41.279Z,66.20
2022-08-11T16:51:43.144Z,65.80
2022-08-11T16:52:44.921Z,65.67
2022-08-11T16:54:05.108Z,65.28